sensor_id;sensor_type;location;lat;lon;timestamp;temperature;humidity
11152;DHT22;5630;49.342;10.802;2023-03-01T00:01:08;-0.80;99.90
11152;DHT22;5630;49.342;10.802;2023-03-01T00:03:35;-0.80;99.90
11152;DHT22;5630;49.342;10.802;2023-03-01T00:06:01;-0.90;99.90
11152;DHT22;5630;49.342;10.802;2023-03-01T00:08:27;-1.00;99.90
11152;DHT22;5630;49.342;10.802;2023-03-01T00:11:08;-1.00;99.90
11152;DHT22;5630;49.342;10.802;2023-03-01T00:13:35;-1.10;99.90
11152;DHT22;5630;49.342;10.802;2023-03-01T00:16:06;-1.20;99.90
11152;DHT22;5630;49.342;10.802;2023-03-01T00:18:32;-1.20;99.90
11152;DHT22;5630;49.342;10.802;2023-03-01T00:20:58;-1.40;99.90
11152;DHT22;5630;49.342;10.802;2023-03-01T00:23:24;-1.40;99.90
11152;DHT22;5630;49.342;10.802;2023-03-01T00:25:50;-1.40;99.90
11152;DHT22;5630;49.342;10.802;2023-03-01T00:28:16;-1.40;99.90
11152;DHT22;5630;49.342;10.802;2023-03-01T00:30:42;-1.50;99.90
11152;DHT22;5630;49.342;10.802;2023-03-01T00:33:08;-1.40;99.90
11152;DHT22;5630;49.342;10.802;2023-03-01T00:35:34;-1.40;99.90
11152;DHT22;5630;49.342;10.802;2023-03-01T00:38:00;-1.30;99.90
11152;DHT22;5630;49.342;10.802;2023-03-01T00:40:31;-1.30;99.90
11152;DHT22;5630;49.342;10.802;2023-03-01T00:42:57;-1.30;99.90
11152;DHT22;5630;49.342;10.802;2023-03-01T00:45:23;-1.20;99.90
11152;DHT22;5630;49.342;10.802;2023-03-01T00:47:49;-1.20;99.90
11152;DHT22;5630;49.342;10.802;2023-03-01T00:50:15;-1.10;99.90
11152;DHT22;5630;49.342;10.802;2023-03-01T00:52:41;-1.10;99.90
11152;DHT22;5630;49.342;10.802;2023-03-01T00:55:07;-1.10;99.90
11152;DHT22;5630;49.342;10.802;2023-03-01T00:57:33;-1.10;99.90
11152;DHT22;5630;49.342;10.802;2023-03-01T00:59:59;-1.10;99.90
11152;DHT22;5630;49.342;10.802;2023-03-01T01:02:25;-1.00;99.90
11152;DHT22;5630;49.342;10.802;2023-03-01T01:04:50;-1.00;99.90
11152;DHT22;5630;49.342;10.802;2023-03-01T01:07:17;-1.00;99.90
11152;DHT22;5630;49.342;10.802;2023-03-01T01:09:42;-1.00;99.90
11152;DHT22;5630;49.342;10.802;2023-03-01T01:12:08;-1.00;99.90
11152;DHT22;5630;49.342;10.802;2023-03-01T01:14:34;-1.10;99.90
11152;DHT22;5630;49.342;10.802;2023-03-01T01:17:00;-1.10;99.90
11152;DHT22;5630;49.342;10.802;2023-03-01T01:19:26;-1.00;99.90
11152;DHT22;5630;49.342;10.802;2023-03-01T01:21:52;-1.10;99.90
11152;DHT22;5630;49.342;10.802;2023-03-01T01:24:18;-1.10;99.90
11152;DHT22;5630;49.342;10.802;2023-03-01T01:26:44;-1.10;99.90
11152;DHT22;5630;49.342;10.802;2023-03-01T01:29:10;-1.10;99.90
11152;DHT22;5630;49.342;10.802;2023-03-01T01:31:38;-1.10;99.90
11152;DHT22;5630;49.342;10.802;2023-03-01T01:34:06;-1.20;99.90
11152;DHT22;5630;49.342;10.802;2023-03-01T01:36:33;-1.20;99.90
11152;DHT22;5630;49.342;10.802;2023-03-01T01:38:59;-1.20;99.90
11152;DHT22;5630;49.342;10.802;2023-03-01T01:41:27;-1.20;99.90
11152;DHT22;5630;49.342;10.802;2023-03-01T01:44:16;-1.20;99.90
11152;DHT22;5630;49.342;10.802;2023-03-01T01:46:47;-1.20;99.90
11152;DHT22;5630;49.342;10.802;2023-03-01T01:49:45;-1.20;99.90
11152;DHT22;5630;49.342;10.802;2023-03-01T01:52:34;-1.20;99.90
11152;DHT22;5630;49.342;10.802;2023-03-01T01:55:10;-1.20;99.90
11152;DHT22;5630;49.342;10.802;2023-03-01T01:57:43;-1.30;99.90
11152;DHT22;5630;49.342;10.802;2023-03-01T02:00:16;-1.30;99.90
11152;DHT22;5630;49.342;10.802;2023-03-01T02:02:43;-1.30;99.90
11152;DHT22;5630;49.342;10.802;2023-03-01T02:07:58;-1.30;99.90
11152;DHT22;5630;49.342;10.802;2023-03-01T02:10:24;-1.30;99.90
11152;DHT22;5630;49.342;10.802;2023-03-01T02:12:51;-1.30;99.90
11152;DHT22;5630;49.342;10.802;2023-03-01T02:15:17;-1.30;99.90
11152;DHT22;5630;49.342;10.802;2023-03-01T02:17:43;-1.30;99.90
11152;DHT22;5630;49.342;10.802;2023-03-01T02:20:35;-1.30;99.90
11152;DHT22;5630;49.342;10.802;2023-03-01T02:23:06;-1.30;99.90
11152;DHT22;5630;49.342;10.802;2023-03-01T02:25:55;-1.30;99.90
11152;DHT22;5630;49.342;10.802;2023-03-01T02:28:33;-1.30;99.90
11152;DHT22;5630;49.342;10.802;2023-03-01T02:31:01;-1.40;99.90
11152;DHT22;5630;49.342;10.802;2023-03-01T02:33:45;-1.40;99.90
11152;DHT22;5630;49.342;10.802;2023-03-01T02:36:17;-1.50;99.90
11152;DHT22;5630;49.342;10.802;2023-03-01T02:38:44;-1.50;99.90
11152;DHT22;5630;49.342;10.802;2023-03-01T02:41:13;-1.50;99.90
11152;DHT22;5630;49.342;10.802;2023-03-01T02:43:40;-1.60;99.90
11152;DHT22;5630;49.342;10.802;2023-03-01T02:46:12;-1.60;99.90
11152;DHT22;5630;49.342;10.802;2023-03-01T02:48:46;-1.60;99.90
11152;DHT22;5630;49.342;10.802;2023-03-01T02:54:09;-1.60;99.90
11152;DHT22;5630;49.342;10.802;2023-03-01T02:56:36;-1.60;99.90
11152;DHT22;5630;49.342;10.802;2023-03-01T02:59:02;-1.60;99.90
11152;DHT22;5630;49.342;10.802;2023-03-01T03:01:28;-1.60;99.90
11152;DHT22;5630;49.342;10.802;2023-03-01T03:04:06;-1.60;99.90
11152;DHT22;5630;49.342;10.802;2023-03-01T03:06:33;-1.70;99.90
11152;DHT22;5630;49.342;10.802;2023-03-01T03:08:58;-1.60;99.90
11152;DHT22;5630;49.342;10.802;2023-03-01T03:11:24;-1.60;99.90
11152;DHT22;5630;49.342;10.802;2023-03-01T03:13:50;-1.70;99.90
11152;DHT22;5630;49.342;10.802;2023-03-01T03:16:16;-1.70;99.90
11152;DHT22;5630;49.342;10.802;2023-03-01T03:18:42;-1.70;99.90
11152;DHT22;5630;49.342;10.802;2023-03-01T03:21:08;-1.70;99.90
11152;DHT22;5630;49.342;10.802;2023-03-01T03:23:38;-1.70;99.90
11152;DHT22;5630;49.342;10.802;2023-03-01T03:26:04;-1.80;99.90
11152;DHT22;5630;49.342;10.802;2023-03-01T03:28:31;-1.90;99.90
11152;DHT22;5630;49.342;10.802;2023-03-01T03:30:57;-1.80;99.90
11152;DHT22;5630;49.342;10.802;2023-03-01T03:33:24;-1.90;99.90
11152;DHT22;5630;49.342;10.802;2023-03-01T03:35:50;-1.90;99.90
11152;DHT22;5630;49.342;10.802;2023-03-01T03:38:17;-2.10;99.90
11152;DHT22;5630;49.342;10.802;2023-03-01T03:41:00;-2.20;99.90
11152;DHT22;5630;49.342;10.802;2023-03-01T03:43:28;-2.30;99.90
11152;DHT22;5630;49.342;10.802;2023-03-01T03:45:54;-2.30;99.90
11152;DHT22;5630;49.342;10.802;2023-03-01T03:48:20;-2.20;99.90
11152;DHT22;5630;49.342;10.802;2023-03-01T03:50:50;-2.30;99.90
11152;DHT22;5630;49.342;10.802;2023-03-01T03:53:16;-2.40;99.90
11152;DHT22;5630;49.342;10.802;2023-03-01T03:55:42;-2.40;99.90
11152;DHT22;5630;49.342;10.802;2023-03-01T03:58:10;-2.50;99.90
11152;DHT22;5630;49.342;10.802;2023-03-01T04:00:41;-2.50;99.90
11152;DHT22;5630;49.342;10.802;2023-03-01T04:03:07;-2.50;99.90
11152;DHT22;5630;49.342;10.802;2023-03-01T04:05:33;-2.50;99.90
11152;DHT22;5630;49.342;10.802;2023-03-01T04:07:59;-2.50;99.90
11152;DHT22;5630;49.342;10.802;2023-03-01T04:10:34;-2.50;99.90
11152;DHT22;5630;49.342;10.802;2023-03-01T04:12:59;-2.40;99.90
11152;DHT22;5630;49.342;10.802;2023-03-01T04:15:26;-2.40;99.90
11152;DHT22;5630;49.342;10.802;2023-03-01T04:17:53;-2.40;99.90
11152;DHT22;5630;49.342;10.802;2023-03-01T04:20:22;-2.30;99.90
11152;DHT22;5630;49.342;10.802;2023-03-01T04:23:00;-2.40;99.90
11152;DHT22;5630;49.342;10.802;2023-03-01T04:25:42;-2.40;99.90
11152;DHT22;5630;49.342;10.802;2023-03-01T04:28:10;-2.40;99.90
11152;DHT22;5630;49.342;10.802;2023-03-01T04:30:37;-2.40;99.90
11152;DHT22;5630;49.342;10.802;2023-03-01T04:33:07;-2.40;99.90
11152;DHT22;5630;49.342;10.802;2023-03-01T04:35:35;-2.40;99.90
11152;DHT22;5630;49.342;10.802;2023-03-01T04:38:00;-2.30;99.90
11152;DHT22;5630;49.342;10.802;2023-03-01T04:40:26;-2.30;99.90
11152;DHT22;5630;49.342;10.802;2023-03-01T04:42:51;-2.30;99.90
11152;DHT22;5630;49.342;10.802;2023-03-01T04:45:17;-2.30;99.90
11152;DHT22;5630;49.342;10.802;2023-03-01T04:47:44;-2.20;99.90
11152;DHT22;5630;49.342;10.802;2023-03-01T04:50:13;-2.30;99.90
11152;DHT22;5630;49.342;10.802;2023-03-01T04:52:39;-2.20;99.90
11152;DHT22;5630;49.342;10.802;2023-03-01T04:55:06;-2.20;99.90
11152;DHT22;5630;49.342;10.802;2023-03-01T04:57:32;-2.10;99.90
11152;DHT22;5630;49.342;10.802;2023-03-01T04:59:57;-2.10;99.90
11152;DHT22;5630;49.342;10.802;2023-03-01T05:02:23;-2.10;99.90
11152;DHT22;5630;49.342;10.802;2023-03-01T05:04:49;-2.10;99.90
11152;DHT22;5630;49.342;10.802;2023-03-01T05:07:14;-2.10;99.90
11152;DHT22;5630;49.342;10.802;2023-03-01T05:09:48;-2.10;99.90
11152;DHT22;5630;49.342;10.802;2023-03-01T05:12:14;-2.10;99.90
11152;DHT22;5630;49.342;10.802;2023-03-01T05:14:41;-2.10;99.90
11152;DHT22;5630;49.342;10.802;2023-03-01T05:17:07;-2.10;99.90
11152;DHT22;5630;49.342;10.802;2023-03-01T05:19:32;-2.10;99.90
11152;DHT22;5630;49.342;10.802;2023-03-01T05:21:58;-2.10;99.90
11152;DHT22;5630;49.342;10.802;2023-03-01T05:24:27;-2.10;99.90
11152;DHT22;5630;49.342;10.802;2023-03-01T05:26:54;-2.10;99.90
11152;DHT22;5630;49.342;10.802;2023-03-01T05:29:21;-2.10;99.90
11152;DHT22;5630;49.342;10.802;2023-03-01T05:31:55;-2.10;99.90
11152;DHT22;5630;49.342;10.802;2023-03-01T05:34:29;-2.10;99.90
11152;DHT22;5630;49.342;10.802;2023-03-01T05:36:55;-2.10;99.90
11152;DHT22;5630;49.342;10.802;2023-03-01T05:39:22;-2.10;99.90
11152;DHT22;5630;49.342;10.802;2023-03-01T05:41:51;-2.20;99.90
11152;DHT22;5630;49.342;10.802;2023-03-01T05:44:17;-2.20;99.90
11152;DHT22;5630;49.342;10.802;2023-03-01T05:46:43;-2.20;99.90
11152;DHT22;5630;49.342;10.802;2023-03-01T05:49:08;-2.20;99.90
11152;DHT22;5630;49.342;10.802;2023-03-01T05:51:34;-2.20;99.90
11152;DHT22;5630;49.342;10.802;2023-03-01T05:53:59;-2.20;99.90
11152;DHT22;5630;49.342;10.802;2023-03-01T05:56:25;-2.30;99.90
11152;DHT22;5630;49.342;10.802;2023-03-01T05:58:51;-2.30;99.90
11152;DHT22;5630;49.342;10.802;2023-03-01T06:01:16;-2.30;99.90
11152;DHT22;5630;49.342;10.802;2023-03-01T06:03:42;-2.20;99.90
11152;DHT22;5630;49.342;10.802;2023-03-01T06:06:07;-2.30;99.90
11152;DHT22;5630;49.342;10.802;2023-03-01T06:08:33;-2.20;99.90
11152;DHT22;5630;49.342;10.802;2023-03-01T06:10:59;-2.20;99.90
11152;DHT22;5630;49.342;10.802;2023-03-01T06:13:24;-2.20;99.90
11152;DHT22;5630;49.342;10.802;2023-03-01T06:15:50;-2.10;99.90
11152;DHT22;5630;49.342;10.802;2023-03-01T06:18:16;-2.20;99.90
11152;DHT22;5630;49.342;10.802;2023-03-01T06:20:41;-2.20;99.90
11152;DHT22;5630;49.342;10.802;2023-03-01T06:23:07;-2.10;99.90
11152;DHT22;5630;49.342;10.802;2023-03-01T06:25:32;-2.10;99.90
11152;DHT22;5630;49.342;10.802;2023-03-01T06:27:58;-2.10;99.90
11152;DHT22;5630;49.342;10.802;2023-03-01T06:30:25;-2.00;99.90
11152;DHT22;5630;49.342;10.802;2023-03-01T06:32:51;-2.00;99.90
11152;DHT22;5630;49.342;10.802;2023-03-01T06:35:18;-1.90;99.90
11152;DHT22;5630;49.342;10.802;2023-03-01T06:37:45;-1.90;99.90
11152;DHT22;5630;49.342;10.802;2023-03-01T06:40:11;-1.20;99.90
11152;DHT22;5630;49.342;10.802;2023-03-01T06:42:40;1.70;99.90
11152;DHT22;5630;49.342;10.802;2023-03-01T06:45:06;2.60;99.90
11152;DHT22;5630;49.342;10.802;2023-03-01T06:47:33;2.20;99.90
11152;DHT22;5630;49.342;10.802;2023-03-01T06:50:00;1.70;99.90
11152;DHT22;5630;49.342;10.802;2023-03-01T06:52:26;1.10;99.90
11152;DHT22;5630;49.342;10.802;2023-03-01T06:54:52;0.70;99.90
11152;DHT22;5630;49.342;10.802;2023-03-01T06:57:17;0.40;99.90
11152;DHT22;5630;49.342;10.802;2023-03-01T06:59:43;-0.10;99.90
11152;DHT22;5630;49.342;10.802;2023-03-01T07:02:12;-0.20;99.90
11152;DHT22;5630;49.342;10.802;2023-03-01T07:04:38;-0.40;99.90
11152;DHT22;5630;49.342;10.802;2023-03-01T07:07:05;-0.50;99.90
11152;DHT22;5630;49.342;10.802;2023-03-01T07:09:30;-0.60;99.90
11152;DHT22;5630;49.342;10.802;2023-03-01T07:11:56;-0.60;99.90
11152;DHT22;5630;49.342;10.802;2023-03-01T07:14:22;-0.70;99.90
11152;DHT22;5630;49.342;10.802;2023-03-01T07:16:49;-0.70;99.90
11152;DHT22;5630;49.342;10.802;2023-03-01T07:19:15;-0.80;99.90
11152;DHT22;5630;49.342;10.802;2023-03-01T07:21:41;-0.80;99.90
11152;DHT22;5630;49.342;10.802;2023-03-01T07:24:07;-0.70;99.90
11152;DHT22;5630;49.342;10.802;2023-03-01T07:26:33;-0.70;99.90
11152;DHT22;5630;49.342;10.802;2023-03-01T07:29:05;-0.70;99.90
11152;DHT22;5630;49.342;10.802;2023-03-01T07:31:34;-0.60;99.90
11152;DHT22;5630;49.342;10.802;2023-03-01T07:34:02;-0.60;99.90
11152;DHT22;5630;49.342;10.802;2023-03-01T07:36:28;-0.60;99.90
11152;DHT22;5630;49.342;10.802;2023-03-01T07:38:54;-0.50;99.90
11152;DHT22;5630;49.342;10.802;2023-03-01T07:41:21;-0.40;99.90
11152;DHT22;5630;49.342;10.802;2023-03-01T07:43:46;-0.30;99.90
11152;DHT22;5630;49.342;10.802;2023-03-01T07:46:12;-0.30;99.90
11152;DHT22;5630;49.342;10.802;2023-03-01T07:48:38;-0.20;99.90
11152;DHT22;5630;49.342;10.802;2023-03-01T07:51:05;-0.20;99.90
11152;DHT22;5630;49.342;10.802;2023-03-01T07:53:31;0.00;99.90
11152;DHT22;5630;49.342;10.802;2023-03-01T07:56:04;0.10;99.90
11152;DHT22;5630;49.342;10.802;2023-03-01T07:58:30;0.20;99.90
11152;DHT22;5630;49.342;10.802;2023-03-01T08:00:55;0.30;99.90
11152;DHT22;5630;49.342;10.802;2023-03-01T08:03:21;0.40;99.90
11152;DHT22;5630;49.342;10.802;2023-03-01T08:05:46;0.60;99.90
11152;DHT22;5630;49.342;10.802;2023-03-01T08:08:12;0.70;99.90
11152;DHT22;5630;49.342;10.802;2023-03-01T08:10:38;0.70;99.90
11152;DHT22;5630;49.342;10.802;2023-03-01T08:13:03;0.80;99.90
11152;DHT22;5630;49.342;10.802;2023-03-01T08:15:29;1.00;99.90
11152;DHT22;5630;49.342;10.802;2023-03-01T08:17:54;1.10;99.90
11152;DHT22;5630;49.342;10.802;2023-03-01T08:20:20;1.30;99.90
11152;DHT22;5630;49.342;10.802;2023-03-01T08:22:46;1.40;99.90
11152;DHT22;5630;49.342;10.802;2023-03-01T08:25:11;1.50;99.90
11152;DHT22;5630;49.342;10.802;2023-03-01T08:27:37;1.60;99.90
11152;DHT22;5630;49.342;10.802;2023-03-01T08:30:03;1.60;99.90
11152;DHT22;5630;49.342;10.802;2023-03-01T08:32:28;1.80;99.90
11152;DHT22;5630;49.342;10.802;2023-03-01T08:34:54;2.00;99.90
11152;DHT22;5630;49.342;10.802;2023-03-01T08:37:19;2.10;99.90
11152;DHT22;5630;49.342;10.802;2023-03-01T08:39:45;2.30;99.90
11152;DHT22;5630;49.342;10.802;2023-03-01T08:42:11;2.40;99.90
11152;DHT22;5630;49.342;10.802;2023-03-01T08:44:37;2.50;99.90
11152;DHT22;5630;49.342;10.802;2023-03-01T08:47:02;2.70;99.90
11152;DHT22;5630;49.342;10.802;2023-03-01T08:49:29;2.70;99.90
11152;DHT22;5630;49.342;10.802;2023-03-01T08:51:55;2.80;99.90
11152;DHT22;5630;49.342;10.802;2023-03-01T08:54:21;3.00;99.90
11152;DHT22;5630;49.342;10.802;2023-03-01T08:56:48;3.10;99.90
11152;DHT22;5630;49.342;10.802;2023-03-01T08:59:17;3.20;99.90
11152;DHT22;5630;49.342;10.802;2023-03-01T09:01:43;3.20;99.90
11152;DHT22;5630;49.342;10.802;2023-03-01T09:04:09;3.40;99.90
11152;DHT22;5630;49.342;10.802;2023-03-01T09:06:35;3.60;99.90
11152;DHT22;5630;49.342;10.802;2023-03-01T09:09:03;3.60;99.90
11152;DHT22;5630;49.342;10.802;2023-03-01T09:11:29;3.80;99.90
11152;DHT22;5630;49.342;10.802;2023-03-01T09:13:55;3.90;99.90
11152;DHT22;5630;49.342;10.802;2023-03-01T09:16:22;4.00;99.90
11152;DHT22;5630;49.342;10.802;2023-03-01T09:18:52;4.10;99.90
11152;DHT22;5630;49.342;10.802;2023-03-01T09:21:19;4.00;99.90
11152;DHT22;5630;49.342;10.802;2023-03-01T09:23:47;4.10;99.90
11152;DHT22;5630;49.342;10.802;2023-03-01T09:26:21;4.20;99.90
11152;DHT22;5630;49.342;10.802;2023-03-01T09:28:52;4.30;99.90
11152;DHT22;5630;49.342;10.802;2023-03-01T09:31:20;4.40;99.90
11152;DHT22;5630;49.342;10.802;2023-03-01T09:33:47;4.50;99.90
11152;DHT22;5630;49.342;10.802;2023-03-01T09:36:19;4.60;99.90
11152;DHT22;5630;49.342;10.802;2023-03-01T09:38:46;4.80;99.90
11152;DHT22;5630;49.342;10.802;2023-03-01T09:44:03;4.90;99.90
11152;DHT22;5630;49.342;10.802;2023-03-01T09:46:38;5.00;99.90
11152;DHT22;5630;49.342;10.802;2023-03-01T09:49:33;5.20;99.90
11152;DHT22;5630;49.342;10.802;2023-03-01T09:52:21;5.40;99.90
11152;DHT22;5630;49.342;10.802;2023-03-01T09:54:54;5.60;99.90
11152;DHT22;5630;49.342;10.802;2023-03-01T09:57:28;5.90;99.90
11152;DHT22;5630;49.342;10.802;2023-03-01T10:03:01;6.30;99.90
11152;DHT22;5630;49.342;10.802;2023-03-01T10:10:37;6.80;99.90
11152;DHT22;5630;49.342;10.802;2023-03-01T10:13:17;7.10;99.90
11152;DHT22;5630;49.342;10.802;2023-03-01T10:15:49;7.10;99.90
11152;DHT22;5630;49.342;10.802;2023-03-01T10:18:23;7.20;99.90
11152;DHT22;5630;49.342;10.802;2023-03-01T10:23:24;7.70;99.90
11152;DHT22;5630;49.342;10.802;2023-03-01T10:28:50;8.20;99.90
11152;DHT22;5630;49.342;10.802;2023-03-01T10:31:21;8.30;99.90
11152;DHT22;5630;49.342;10.802;2023-03-01T10:33:48;8.30;99.90
11152;DHT22;5630;49.342;10.802;2023-03-01T10:36:18;8.50;99.90
11152;DHT22;5630;49.342;10.802;2023-03-01T10:38:57;8.70;99.90
11152;DHT22;5630;49.342;10.802;2023-03-01T10:41:24;8.90;99.90
11152;DHT22;5630;49.342;10.802;2023-03-01T10:43:52;9.00;99.90
11152;DHT22;5630;49.342;10.802;2023-03-01T10:46:33;9.10;99.90
11152;DHT22;5630;49.342;10.802;2023-03-01T10:49:19;9.30;99.90
11152;DHT22;5630;49.342;10.802;2023-03-01T10:51:47;9.20;99.90
11152;DHT22;5630;49.342;10.802;2023-03-01T10:54:27;10.40;99.90
11152;DHT22;5630;49.342;10.802;2023-03-01T10:56:59;10.50;99.90
11152;DHT22;5630;49.342;10.802;2023-03-01T10:59:38;11.10;99.90
11152;DHT22;5630;49.342;10.802;2023-03-01T11:02:28;11.20;99.90
11152;DHT22;5630;49.342;10.802;2023-03-01T11:07:49;10.90;98.90
11152;DHT22;5630;49.342;10.802;2023-03-01T11:10:26;10.80;99.30
11152;DHT22;5630;49.342;10.802;2023-03-01T11:12:53;10.60;99.40
11152;DHT22;5630;49.342;10.802;2023-03-01T11:15:27;10.50;98.70
11152;DHT22;5630;49.342;10.802;2023-03-01T11:17:55;10.40;98.60
11152;DHT22;5630;49.342;10.802;2023-03-01T11:22:53;10.40;98.30
11152;DHT22;5630;49.342;10.802;2023-03-01T11:25:26;10.10;98.10
11152;DHT22;5630;49.342;10.802;2023-03-01T11:27:53;10.40;98.30
11152;DHT22;5630;49.342;10.802;2023-03-01T11:30:49;10.40;98.40
11152;DHT22;5630;49.342;10.802;2023-03-01T11:33:32;10.40;98.40
11152;DHT22;5630;49.342;10.802;2023-03-01T11:36:40;10.60;98.00
11152;DHT22;5630;49.342;10.802;2023-03-01T11:42:20;10.70;97.30
11152;DHT22;5630;49.342;10.802;2023-03-01T11:44:54;10.60;97.00
11152;DHT22;5630;49.342;10.802;2023-03-01T11:58:40;10.90;96.50
11152;DHT22;5630;49.342;10.802;2023-03-01T12:01:43;11.00;96.00
11152;DHT22;5630;49.342;10.802;2023-03-01T12:15:49;11.60;99.90
11152;DHT22;5630;49.342;10.802;2023-03-01T12:18:43;11.40;99.70
11152;DHT22;5630;49.342;10.802;2023-03-01T12:27:23;12.40;99.90
11152;DHT22;5630;49.342;10.802;2023-03-01T12:30:09;12.70;99.90
11152;DHT22;5630;49.342;10.802;2023-03-01T12:35:52;12.60;99.90
11152;DHT22;5630;49.342;10.802;2023-03-01T12:41:35;12.80;99.00
11152;DHT22;5630;49.342;10.802;2023-03-01T12:44:15;12.60;95.70
11152;DHT22;5630;49.342;10.802;2023-03-01T12:49:49;12.70;98.50
11152;DHT22;5630;49.342;10.802;2023-03-01T12:54:57;12.60;96.50
11152;DHT22;5630;49.342;10.802;2023-03-01T13:02:49;12.80;98.20
11152;DHT22;5630;49.342;10.802;2023-03-01T13:05:42;12.80;97.60
11152;DHT22;5630;49.342;10.802;2023-03-01T13:08:30;12.90;98.30
11152;DHT22;5630;49.342;10.802;2023-03-01T13:11:01;13.20;97.30
11152;DHT22;5630;49.342;10.802;2023-03-01T13:13:28;13.00;96.30
11152;DHT22;5630;49.342;10.802;2023-03-01T13:15:55;13.00;95.90
11152;DHT22;5630;49.342;10.802;2023-03-01T13:20:52;13.10;95.60
11152;DHT22;5630;49.342;10.802;2023-03-01T13:31:05;12.70;98.20
11152;DHT22;5630;49.342;10.802;2023-03-01T13:35:57;12.30;95.40
11152;DHT22;5630;49.342;10.802;2023-03-01T13:38:55;12.20;94.20
11152;DHT22;5630;49.342;10.802;2023-03-01T13:44:36;11.60;93.50
11152;DHT22;5630;49.342;10.802;2023-03-01T13:49:59;11.20;94.60
11152;DHT22;5630;49.342;10.802;2023-03-01T13:52:32;11.00;95.60
11152;DHT22;5630;49.342;10.802;2023-03-01T13:54:59;10.90;95.00
11152;DHT22;5630;49.342;10.802;2023-03-01T13:57:32;11.20;99.20
11152;DHT22;5630;49.342;10.802;2023-03-01T13:59:59;11.30;96.20
11152;DHT22;5630;49.342;10.802;2023-03-01T14:02:25;11.20;95.60
11152;DHT22;5630;49.342;10.802;2023-03-01T14:04:57;11.60;99.90
11152;DHT22;5630;49.342;10.802;2023-03-01T14:07:24;11.70;99.90
11152;DHT22;5630;49.342;10.802;2023-03-01T14:09:56;11.70;98.60
11152;DHT22;5630;49.342;10.802;2023-03-01T14:15:44;11.70;96.40
11152;DHT22;5630;49.342;10.802;2023-03-01T14:18:18;11.30;95.70
11152;DHT22;5630;49.342;10.802;2023-03-01T14:20:45;11.00;96.10
11152;DHT22;5630;49.342;10.802;2023-03-01T14:23:22;10.90;97.30
11152;DHT22;5630;49.342;10.802;2023-03-01T14:25:53;10.70;97.50
11152;DHT22;5630;49.342;10.802;2023-03-01T14:28:27;10.60;97.20
11152;DHT22;5630;49.342;10.802;2023-03-01T14:30:58;10.30;97.10
11152;DHT22;5630;49.342;10.802;2023-03-01T14:33:27;10.10;97.70
11152;DHT22;5630;49.342;10.802;2023-03-01T14:41:03;9.60;98.70
11152;DHT22;5630;49.342;10.802;2023-03-01T14:43:30;9.50;99.30
11152;DHT22;5630;49.342;10.802;2023-03-01T14:45:57;9.50;99.50
11152;DHT22;5630;49.342;10.802;2023-03-01T14:48:23;9.40;99.80
11152;DHT22;5630;49.342;10.802;2023-03-01T14:50:50;9.30;99.70
11152;DHT22;5630;49.342;10.802;2023-03-01T14:53:26;9.40;99.80
11152;DHT22;5630;49.342;10.802;2023-03-01T14:55:55;9.30;99.70
11152;DHT22;5630;49.342;10.802;2023-03-01T14:58:24;9.30;99.80
11152;DHT22;5630;49.342;10.802;2023-03-01T15:00:59;9.20;99.50
11152;DHT22;5630;49.342;10.802;2023-03-01T15:03:36;9.10;99.70
11152;DHT22;5630;49.342;10.802;2023-03-01T15:06:04;9.00;99.90
11152;DHT22;5630;49.342;10.802;2023-03-01T15:08:31;8.90;99.90
11152;DHT22;5630;49.342;10.802;2023-03-01T15:11:17;8.90;99.90
11152;DHT22;5630;49.342;10.802;2023-03-01T15:13:43;8.80;99.90
11152;DHT22;5630;49.342;10.802;2023-03-01T15:16:24;8.70;99.90
11152;DHT22;5630;49.342;10.802;2023-03-01T15:18:59;8.70;99.90
11152;DHT22;5630;49.342;10.802;2023-03-01T15:21:29;8.70;99.90
11152;DHT22;5630;49.342;10.802;2023-03-01T15:26:53;8.60;99.90
11152;DHT22;5630;49.342;10.802;2023-03-01T15:29:23;8.50;99.90
11152;DHT22;5630;49.342;10.802;2023-03-01T15:32:25;8.50;99.90
11152;DHT22;5630;49.342;10.802;2023-03-01T15:34:48;8.50;99.90
11152;DHT22;5630;49.342;10.802;2023-03-01T15:37:45;8.40;99.90
11152;DHT22;5630;49.342;10.802;2023-03-01T15:40:25;8.30;99.90
11152;DHT22;5630;49.342;10.802;2023-03-01T15:43:06;8.20;99.90
11152;DHT22;5630;49.342;10.802;2023-03-01T15:45:33;8.20;99.90
11152;DHT22;5630;49.342;10.802;2023-03-01T15:48:13;8.10;99.90
11152;DHT22;5630;49.342;10.802;2023-03-01T15:50:40;8.10;99.90
11152;DHT22;5630;49.342;10.802;2023-03-01T15:53:12;8.00;99.90
11152;DHT22;5630;49.342;10.802;2023-03-01T15:55:39;7.90;99.90
11152;DHT22;5630;49.342;10.802;2023-03-01T15:58:15;7.90;99.90
11152;DHT22;5630;49.342;10.802;2023-03-01T16:00:41;7.90;99.90
11152;DHT22;5630;49.342;10.802;2023-03-01T16:03:10;7.80;99.90
11152;DHT22;5630;49.342;10.802;2023-03-01T16:05:37;7.80;99.90
11152;DHT22;5630;49.342;10.802;2023-03-01T16:08:04;7.70;99.90
11152;DHT22;5630;49.342;10.802;2023-03-01T16:10:32;7.70;99.90
11152;DHT22;5630;49.342;10.802;2023-03-01T16:12:58;7.60;99.90
11152;DHT22;5630;49.342;10.802;2023-03-01T16:15:26;7.50;99.90
11152;DHT22;5630;49.342;10.802;2023-03-01T16:17:52;7.50;99.90
11152;DHT22;5630;49.342;10.802;2023-03-01T16:20:18;7.40;99.90
11152;DHT22;5630;49.342;10.802;2023-03-01T16:22:45;7.30;99.90
11152;DHT22;5630;49.342;10.802;2023-03-01T16:25:13;7.20;99.90
11152;DHT22;5630;49.342;10.802;2023-03-01T16:27:41;7.10;99.90
11152;DHT22;5630;49.342;10.802;2023-03-01T16:30:08;7.00;99.90
11152;DHT22;5630;49.342;10.802;2023-03-01T16:32:38;7.10;99.90
11152;DHT22;5630;49.342;10.802;2023-03-01T16:35:06;7.00;99.90
11152;DHT22;5630;49.342;10.802;2023-03-01T16:37:33;6.90;99.90
11152;DHT22;5630;49.342;10.802;2023-03-01T16:39:59;6.80;99.90
11152;DHT22;5630;49.342;10.802;2023-03-01T16:42:25;6.80;99.90
11152;DHT22;5630;49.342;10.802;2023-03-01T16:44:55;6.70;99.90
11152;DHT22;5630;49.342;10.802;2023-03-01T16:47:21;6.70;99.90
11152;DHT22;5630;49.342;10.802;2023-03-01T16:49:47;6.60;99.90
11152;DHT22;5630;49.342;10.802;2023-03-01T16:52:12;6.50;99.90
11152;DHT22;5630;49.342;10.802;2023-03-01T16:54:38;6.40;99.90
11152;DHT22;5630;49.342;10.802;2023-03-01T16:57:04;6.40;99.90
11152;DHT22;5630;49.342;10.802;2023-03-01T16:59:30;6.40;99.90
11152;DHT22;5630;49.342;10.802;2023-03-01T17:01:55;6.30;99.90
11152;DHT22;5630;49.342;10.802;2023-03-01T17:04:22;6.20;99.90
11152;DHT22;5630;49.342;10.802;2023-03-01T17:06:48;6.10;99.90
11152;DHT22;5630;49.342;10.802;2023-03-01T17:09:13;6.10;99.90
11152;DHT22;5630;49.342;10.802;2023-03-01T17:11:40;6.10;99.90
11152;DHT22;5630;49.342;10.802;2023-03-01T17:14:06;6.00;99.90
11152;DHT22;5630;49.342;10.802;2023-03-01T17:16:32;5.90;99.90
11152;DHT22;5630;49.342;10.802;2023-03-01T17:18:57;5.90;99.90
11152;DHT22;5630;49.342;10.802;2023-03-01T17:21:23;5.80;99.90
11152;DHT22;5630;49.342;10.802;2023-03-01T17:23:49;5.80;99.90
11152;DHT22;5630;49.342;10.802;2023-03-01T17:26:16;5.80;99.90
11152;DHT22;5630;49.342;10.802;2023-03-01T17:28:42;5.70;99.90
11152;DHT22;5630;49.342;10.802;2023-03-01T17:31:08;5.70;99.90
11152;DHT22;5630;49.342;10.802;2023-03-01T17:33:34;5.60;99.90
11152;DHT22;5630;49.342;10.802;2023-03-01T17:36:00;5.60;99.90
11152;DHT22;5630;49.342;10.802;2023-03-01T17:38:26;5.50;99.90